Time;durP1;ratioP1;P1;durP2;ratioP2;P2;SDS_P1;SDS_P2;PMS_P1;PMS_P2;Temp;Humidity;BMP_temperature;BMP_pressure;BME280_temperature;BME280_humidity;BME280_pressure;Samples;Min_cycle;Max_cycle;Signal;HPM_P1;HPM_P2
2023/12/31 00:00:24;;;;;;;2.05;0.70;;;17.80;75.20;;;;;;4994235;28;20046;-88
2023/12/31 00:02:49;;;;;;;0.88;0.70;;;17.80;76.30;;;;;;4996329;28;20193;-86
2023/12/31 00:05:15;;;;;;;0.70;0.70;;;17.70;75.00;;;;;;4993160;28;20096;-86
2023/12/31 00:07:40;;;;;;;0.60;0.60;;;17.70;75.00;;;;;;4994653;28;20046;-85
2023/12/31 00:10:07;;;;;;;0.60;0.60;;;17.70;75.40;;;;;;5002258;28;20438;-87
2023/12/31 00:12:32;;;;;;;1.63;0.60;;;17.70;75.10;;;;;;4981460;28;20081;-86
2023/12/31 00:14:58;;;;;;;0.95;0.80;;;17.70;75.40;;;;;;5001810;28;20038;-86
2023/12/31 00:17:23;;;;;;;1.63;0.80;;;17.70;75.30;;;;;;5018629;28;20129;-87
2023/12/31 00:19:49;;;;;;;1.02;0.70;;;17.70;76.40;;;;;;4998526;28;20042;-87
2023/12/31 00:22:14;;;;;;;1.00;0.70;;;17.70;75.80;;;;;;4999414;28;20099;-86
2023/12/31 00:24:40;;;;;;;1.58;0.80;;;17.70;76.10;;;;;;5016737;28;20057;-87
2023/12/31 00:27:05;;;;;;;0.80;0.52;;;17.70;76.60;;;;;;4977714;28;20184;-87
2023/12/31 00:29:31;;;;;;;0.80;0.80;;;17.70;76.30;;;;;;4993586;28;20042;-88
2023/12/31 00:31:58;;;;;;;0.50;0.50;;;17.60;76.60;;;;;;4975425;28;20045;-87
2023/12/31 00:34:25;;;;;;;1.83;0.93;;;17.60;76.10;;;;;;4995696;28;20045;-88
2023/12/31 00:36:50;;;;;;;1.15;0.70;;;17.60;75.40;;;;;;4983679;28;20134;-87
2023/12/31 00:39:16;;;;;;;2.65;0.90;;;17.60;76.60;;;;;;5002645;28;20057;-87
2023/12/31 00:41:41;;;;;;;0.63;0.40;;;17.60;76.10;;;;;;4998485;28;20047;-88
2023/12/31 00:44:07;;;;;;;2.33;0.90;;;17.60;75.30;;;;;;5006528;28;20081;-89
2023/12/31 00:46:32;;;;;;;0.82;0.52;;;17.60;76.10;;;;;;4979124;28;20046;-89
2023/12/31 00:48:58;;;;;;;0.60;0.50;;;17.60;76.40;;;;;;4982804;28;20570;-90
2023/12/31 00:51:24;;;;;;;0.70;0.60;;;17.60;75.90;;;;;;4999149;28;20066;-89
2023/12/31 00:53:49;;;;;;;1.92;0.50;;;17.60;75.80;;;;;;4989607;28;20049;-89
2023/12/31 00:56:15;;;;;;;1.00;0.60;;;17.60;76.50;;;;;;4989462;28;20041;-89
2023/12/31 00:58:40;;;;;;;0.70;0.65;;;17.60;76.60;;;;;;4987460;28;20148;-89
2023/12/31 01:01:06;;;;;;;0.65;0.50;;;17.60;76.10;;;;;;4986224;28;20042;-89
2023/12/31 01:03:33;;;;;;;0.50;0.50;;;17.50;76.00;;;;;;4983403;28;20038;-89
2023/12/31 01:06:08;;;;;;;0.75;0.60;;;17.50;76.60;;;;;;5017749;28;20058;-89
2023/12/31 01:08:33;;;;;;;0.63;0.52;;;17.50;76.40;;;;;;5000457;28;20404;-84
2023/12/31 01:10:59;;;;;;;0.45;0.45;;;17.50;76.50;;;;;;4995022;28;20046;-87
2023/12/31 01:13:25;;;;;;;1.27;0.70;;;17.50;76.40;;;;;;5007236;28;20034;-87
2023/12/31 01:15:50;;;;;;;0.50;0.40;;;17.50;76.50;;;;;;4982936;28;20400;-87
2023/12/31 01:18:16;;;;;;;1.73;0.50;;;17.50;75.70;;;;;;5016545;28;20054;-87
2023/12/31 01:20:42;;;;;;;0.40;0.40;;;17.50;76.00;;;;;;5009578;28;20064;-87
2023/12/31 01:23:07;;;;;;;1.20;0.60;;;17.50;76.50;;;;;;4997076;28;20042;-87
2023/12/31 01:25:33;;;;;;;0.63;0.55;;;17.50;76.00;;;;;;5000343;28;20499;-84
2023/12/31 01:28:00;;;;;;;0.73;0.73;;;17.50;76.20;;;;;;4999760;28;20048;-85
2023/12/31 01:30:26;;;;;;;1.73;0.45;;;17.50;76.40;;;;;;4989980;28;20046;-86
2023/12/31 01:32:51;;;;;;;0.40;0.40;;;17.50;77.10;;;;;;4988976;28;20056;-87
2023/12/31 01:35:18;;;;;;;0.63;0.50;;;17.50;76.70;;;;;;4990657;28;20065;-86
2023/12/31 01:37:45;;;;;;;0.50;0.50;;;17.40;76.60;;;;;;4986286;28;20038;-86
2023/12/31 01:40:10;;;;;;;0.40;0.40;;;17.40;76.30;;;;;;4999867;28;20049;-86
2023/12/31 01:42:36;;;;;;;1.00;0.68;;;17.40;76.60;;;;;;5000042;28;20050;-86
2023/12/31 01:45:03;;;;;;;0.75;0.65;;;17.40;76.10;;;;;;5001105;28;20052;-86
2023/12/31 01:47:29;;;;;;;0.32;0.32;;;17.40;75.60;;;;;;5004906;28;20045;-86
2023/12/31 01:49:54;;;;;;;0.90;0.60;;;17.40;75.50;;;;;;4988037;28;20072;-86
2023/12/31 01:52:21;;;;;;;0.32;0.32;;;17.40;75.90;;;;;;4981871;28;20038;-85
2023/12/31 01:54:47;;;;;;;0.40;0.40;;;17.40;76.10;;;;;;5011966;28;20044;-87
2023/12/31 01:57:12;;;;;;;1.02;0.50;;;17.40;75.40;;;;;;5007123;28;20053;-87
2023/12/31 01:59:38;;;;;;;0.50;0.50;;;17.40;75.30;;;;;;4990612;28;20046;-86
2023/12/31 02:02:04;;;;;;;0.50;0.40;;;17.40;76.10;;;;;;4988288;28;20121;-86
2023/12/31 02:04:35;;;;;;;0.40;0.32;;;17.40;74.80;;;;;;4989502;28;20070;-86
2023/12/31 02:07:01;;;;;;;0.50;0.50;;;17.40;75.50;;;;;;4983314;28;20043;-85
2023/12/31 02:09:27;;;;;;;1.00;0.40;;;17.40;74.60;;;;;;5013076;28;20054;-84
2023/12/31 02:11:53;;;;;;;0.43;0.43;;;17.40;74.90;;;;;;4995005;28;20569;-85
2023/12/31 02:14:19;;;;;;;0.82;0.77;;;17.40;74.50;;;;;;5008779;28;20049;-84
2023/12/31 02:16:44;;;;;;;1.25;0.65;;;17.40;74.70;;;;;;5025740;28;20045;-84
2023/12/31 02:19:10;;;;;;;1.95;0.50;;;17.40;74.70;;;;;;4998461;28;20042;-85
2023/12/31 02:21:35;;;;;;;0.90;0.65;;;17.40;74.60;;;;;;4996182;28;20059;-85
2023/12/31 02:24:01;;;;;;;0.30;0.30;;;17.40;74.60;;;;;;4979036;28;20057;-85
2023/12/31 02:26:26;;;;;;;0.50;0.30;;;17.40;74.50;;;;;;4981849;28;20045;-84
2023/12/31 02:28:52;;;;;;;0.45;0.45;;;17.40;74.60;;;;;;5012422;28;20049;-84
2023/12/31 02:31:18;;;;;;;0.70;0.40;;;17.40;74.60;;;;;;4999277;28;20046;-83
2023/12/31 02:33:44;;;;;;;0.80;0.40;;;17.40;74.60;;;;;;5012512;28;20068;-86
2023/12/31 02:36:09;;;;;;;0.68;0.40;;;17.30;74.60;;;;;;5006187;28;20528;-87
2023/12/31 02:38:35;;;;;;;0.68;0.32;;;17.30;74.50;;;;;;4984553;28;20125;-86
2023/12/31 02:41:01;;;;;;;0.60;0.38;;;17.30;74.80;;;;;;5003516;28;20526;-87
2023/12/31 02:43:26;;;;;;;0.50;0.43;;;17.30;74.50;;;;;;4982734;28;20455;-86
2023/12/31 02:45:52;;;;;;;0.30;0.30;;;17.30;74.50;;;;;;4983676;28;20052;-86
2023/12/31 02:48:17;;;;;;;0.43;0.40;;;17.30;74.60;;;;;;4982409;28;20305;-82
2023/12/31 02:50:43;;;;;;;0.82;0.20;;;17.30;74.60;;;;;;4998576;28;20052;-86
2023/12/31 02:53:09;;;;;;;0.77;0.40;;;17.30;74.70;;;;;;5013103;28;20041;-86
2023/12/31 02:55:34;;;;;;;0.88;0.60;;;17.30;74.70;;;;;;4997745;28;20578;-87
2023/12/31 02:58:00;;;;;;;0.60;0.40;;;17.30;74.70;;;;;;5015366;28;20051;-87
2023/12/31 03:00:25;;;;;;;0.60;0.40;;;17.30;74.70;;;;;;4992423;28;20575;-86
2023/12/31 03:02:51;;;;;;;0.90;0.40;;;17.30;74.70;;;;;;4971582;28;20042;-87
2023/12/31 03:05:17;;;;;;;0.63;0.50;;;17.30;74.80;;;;;;5009128;28;20049;-88
2023/12/31 03:07:42;;;;;;;0.75;0.40;;;17.30;74.70;;;;;;4994954;28;20449;-88
2023/12/31 03:10:09;;;;;;;0.30;0.20;;;17.30;74.80;;;;;;5003087;28;20399;-87
2023/12/31 03:12:34;;;;;;;0.40;0.40;;;17.30;74.80;;;;;;4981252;28;20069;-88
2023/12/31 03:15:00;;;;;;;0.20;0.20;;;17.30;74.80;;;;;;4998340;28;20038;-87
2023/12/31 03:17:25;;;;;;;0.60;0.40;;;17.30;75.30;;;;;;4998354;28;20589;-87
2023/12/31 03:19:51;;;;;;;0.32;0.32;;;17.30;74.80;;;;;;5011151;28;20050;-87
2023/12/31 03:22:16;;;;;;;0.40;0.30;;;17.20;74.80;;;;;;4998362;28;20139;-87
2023/12/31 03:24:43;;;;;;;0.70;0.30;;;17.20;74.80;;;;;;4981885;28;20119;-87
2023/12/31 03:27:09;;;;;;;1.05;0.38;;;17.20;74.80;;;;;;5006569;28;20073;-88
2023/12/31 03:29:35;;;;;;;0.40;0.20;;;17.20;74.80;;;;;;4999884;28;20038;-89
2023/12/31 03:32:01;;;;;;;0.80;0.50;;;17.20;74.90;;;;;;4997638;28;20042;-88
2023/12/31 03:34:26;;;;;;;0.50;0.40;;;17.20;74.90;;;;;;4990318;28;20582;-88
2023/12/31 03:36:52;;;;;;;0.32;0.25;;;17.20;74.90;;;;;;5013006;28;20149;-88
2023/12/31 03:39:18;;;;;;;0.38;0.30;;;17.20;74.80;;;;;;4982709;28;20503;-87
2023/12/31 03:41:43;;;;;;;0.32;0.30;;;17.20;74.90;;;;;;4999001;28;20038;-87
2023/12/31 03:44:09;;;;;;;0.60;0.40;;;17.20;74.90;;;;;;4998816;28;20117;-88
2023/12/31 03:46:35;;;;;;;0.32;0.20;;;17.20;74.70;;;;;;5020801;28;20132;-87
2023/12/31 03:49:00;;;;;;;0.50;0.43;;;17.20;74.90;;;;;;4996164;28;20078;-87
2023/12/31 03:51:27;;;;;;;0.50;0.30;;;17.20;74.70;;;;;;4998216;28;20049;-86
2023/12/31 03:53:52;;;;;;;0.20;0.20;;;17.20;74.90;;;;;;4982784;28;20050;-88
2023/12/31 03:56:18;;;;;;;0.60;0.30;;;17.20;74.70;;;;;;4994690;28;20074;-87
2023/12/31 03:58:43;;;;;;;0.50;0.30;;;17.20;74.80;;;;;;5010204;28;20038;-87
2023/12/31 04:01:09;;;;;;;0.28;0.20;;;17.20;74.60;;;;;;4981890;28;20520;-87
2023/12/31 04:03:35;;;;;;;0.25;0.25;;;17.20;74.90;;;;;;4981117;28;20487;-87
2023/12/31 04:06:00;;;;;;;0.30;0.22;;;17.20;74.80;;;;;;5010586;28;20046;-85
2023/12/31 04:08:26;;;;;;;0.20;0.20;;;17.20;74.80;;;;;;4980126;28;20077;-85
2023/12/31 04:10:51;;;;;;;0.20;0.20;;;17.20;74.80;;;;;;5015850;28;20042;-86
2023/12/31 04:13:17;;;;;;;0.20;0.20;;;17.10;74.60;;;;;;4997688;28;20045;-87
2023/12/31 04:15:43;;;;;;;0.28;0.20;;;17.20;74.80;;;;;;5014881;28;20096;-85
2023/12/31 04:18:08;;;;;;;0.60;0.30;;;17.10;74.60;;;;;;5009593;28;20049;-85
2023/12/31 04:20:34;;;;;;;0.95;0.20;;;17.10;74.70;;;;;;5019519;28;20068;-85
2023/12/31 04:22:59;;;;;;;0.70;0.40;;;17.10;74.60;;;;;;5011808;28;20052;-85
2023/12/31 04:25:25;;;;;;;0.40;0.35;;;17.10;74.70;;;;;;4996395;28;20557;-86
2023/12/31 04:27:51;;;;;;;0.25;0.20;;;17.10;74.80;;;;;;4983348;28;20104;-87
2023/12/31 04:30:18;;;;;;;0.30;0.30;;;17.20;74.70;;;;;;5010654;28;20041;-87
2023/12/31 04:32:44;;;;;;;1.23;0.40;;;17.10;74.60;;;;;;4994635;28;20054;-87
2023/12/31 04:35:10;;;;;;;0.73;0.30;;;17.10;75.30;;;;;;4986843;28;20049;-87
2023/12/31 04:37:35;;;;;;;0.70;0.40;;;17.10;74.60;;;;;;5016908;28;20401;-88
2023/12/31 04:40:01;;;;;;;0.40;0.38;;;17.10;74.60;;;;;;4999938;28;20051;-88
2023/12/31 04:42:27;;;;;;;0.20;0.20;;;17.10;74.60;;;;;;4981093;28;20046;-87
2023/12/31 04:44:52;;;;;;;0.35;0.35;;;17.10;74.60;;;;;;4997306;28;20091;-88
2023/12/31 04:47:19;;;;;;;0.38;0.10;;;17.10;74.90;;;;;;5001139;28;20514;-87
2023/12/31 04:49:44;;;;;;;0.20;0.20;;;17.10;74.60;;;;;;5013010;28;20128;-88
2023/12/31 04:52:10;;;;;;;0.20;0.20;;;17.10;74.70;;;;;;5015308;28;20038;-86
2023/12/31 04:54:36;;;;;;;0.57;0.30;;;17.10;74.70;;;;;;5001658;28;20054;-87
2023/12/31 04:57:02;;;;;;;0.30;0.30;;;17.10;74.60;;;;;;5009882;28;20050;-87
2023/12/31 04:59:27;;;;;;;0.30;0.30;;;17.10;74.40;;;;;;4998342;28;20053;-86
2023/12/31 05:01:53;;;;;;;0.47;0.38;;;17.10;74.80;;;;;;5000293;28;20454;-87
2023/12/31 05:04:19;;;;;;;0.22;0.20;;;17.10;74.80;;;;;;5004942;28;20089;-87
2023/12/31 05:06:45;;;;;;;0.40;0.20;;;17.00;74.60;;;;;;4998761;28;20322;-87
2023/12/31 05:09:11;;;;;;;0.35;0.20;;;17.10;74.50;;;;;;4974965;28;20049;-88
2023/12/31 05:11:40;;;;;;;0.38;0.10;;;17.10;74.60;;;;;;4988728;28;20062;-88
2023/12/31 05:14:05;;;;;;;0.10;0.10;;;17.10;74.80;;;;;;5007387;28;20069;-87
2023/12/31 05:16:31;;;;;;;0.47;0.20;;;17.10;74.80;;;;;;5031324;28;20026;-85
2023/12/31 05:18:57;;;;;;;0.90;0.30;;;17.10;74.80;;;;;;5018771;28;20579;-86
2023/12/31 05:21:22;;;;;;;1.63;0.20;;;17.10;74.60;;;;;;5001190;28;20052;-87
2023/12/31 05:23:48;;;;;;;0.35;0.25;;;17.00;74.30;;;;;;5010525;28;20489;-87
2023/12/31 05:26:14;;;;;;;0.50;0.30;;;17.00;74.30;;;;;;4989392;28;20042;-87
2023/12/31 05:28:39;;;;;;;0.50;0.25;;;17.00;74.40;;;;;;5011031;28;20037;-88
2023/12/31 05:31:05;;;;;;;1.33;0.55;;;17.00;74.30;;;;;;5014673;28;20042;-87
2023/12/31 05:33:31;;;;;;;0.40;0.30;;;17.00;74.40;;;;;;5011395;28;20061;-87
2023/12/31 05:35:56;;;;;;;0.35;0.30;;;17.00;74.30;;;;;;5016087;28;20112;-87
2023/12/31 05:38:22;;;;;;;0.30;0.20;;;17.00;74.70;;;;;;5001545;28;20049;-88
2023/12/31 05:40:47;;;;;;;0.32;0.28;;;17.00;74.40;;;;;;5013519;28;20053;-87
2023/12/31 05:43:13;;;;;;;0.30;0.20;;;17.00;74.20;;;;;;5016280;28;20132;-87
2023/12/31 05:45:38;;;;;;;0.32;0.25;;;17.00;74.30;;;;;;4998802;28;20531;-87
2023/12/31 05:48:04;;;;;;;0.40;0.30;;;17.00;74.40;;;;;;5014203;28;20050;-86
2023/12/31 05:50:30;;;;;;;0.20;0.20;;;17.00;74.30;;;;;;5012407;28;20038;-86
2023/12/31 05:52:56;;;;;;;0.20;0.10;;;17.00;74.40;;;;;;4985208;28;20051;-86
2023/12/31 05:55:21;;;;;;;0.38;0.20;;;17.00;74.10;;;;;;4999837;28;20046;-88
2023/12/31 05:57:47;;;;;;;0.30;0.20;;;17.00;74.10;;;;;;4999514;28;20062;-88
2023/12/31 06:00:13;;;;;;;0.30;0.20;;;17.00;74.40;;;;;;4993018;28;20232;-89
2023/12/31 06:02:39;;;;;;;1.20;0.22;;;17.00;74.30;;;;;;5002494;28;20050;-88
2023/12/31 06:05:05;;;;;;;0.50;0.35;;;17.00;74.40;;;;;;4998932;28;20496;-89
2023/12/31 06:07:30;;;;;;;0.55;0.20;;;17.00;74.20;;;;;;4984573;28;20048;-83
2023/12/31 06:09:56;;;;;;;0.43;0.30;;;17.00;74.10;;;;;;4984017;28;20046;-86
2023/12/31 06:12:22;;;;;;;0.50;0.22;;;17.00;74.40;;;;;;4985624;28;20049;-85
2023/12/31 06:14:47;;;;;;;0.25;0.20;;;17.00;74.20;;;;;;5010054;28;20042;-86
2023/12/31 06:17:13;;;;;;;0.20;0.20;;;17.00;74.20;;;;;;5015872;28;20500;-87
2023/12/31 06:19:40;;;;;;;0.20;0.13;;;17.00;73.90;;;;;;5006470;28;20042;-87
2023/12/31 06:22:05;;;;;;;0.85;0.30;;;17.00;74.30;;;;;;4984016;28;20046;-88
2023/12/31 06:24:31;;;;;;;0.20;0.20;;;17.00;74.00;;;;;;5010635;28;20049;-82
2023/12/31 06:26:56;;;;;;;0.30;0.20;;;17.00;74.00;;;;;;4988430;28;20102;-85
2023/12/31 06:29:22;;;;;;;0.82;0.30;;;17.00;74.40;;;;;;5000296;28;20061;-85
2023/12/31 06:31:48;;;;;;;0.45;0.28;;;17.00;74.00;;;;;;4993263;28;20423;-84
2023/12/31 06:34:14;;;;;;;0.88;0.35;;;16.90;74.00;;;;;;4956725;28;20401;-85
2023/12/31 06:36:39;;;;;;;0.30;0.30;;;16.90;73.80;;;;;;4984126;28;20416;-86
2023/12/31 06:39:07;;;;;;;0.55;0.30;;;16.90;73.90;;;;;;4995915;28;20052;-86
2023/12/31 06:41:33;;;;;;;1.13;0.50;;;16.90;74.20;;;;;;4953875;28;20538;-85
2023/12/31 06:43:59;;;;;;;0.50;0.30;;;16.90;73.80;;;;;;4975728;28;20058;-87
2023/12/31 06:46:25;;;;;;;0.68;0.40;;;16.90;73.70;;;;;;4964887;28;20277;-87
2023/12/31 06:48:51;;;;;;;0.77;0.40;;;16.90;73.80;;;;;;4983386;28;20061;-86
2023/12/31 06:51:16;;;;;;;0.50;0.30;;;16.90;74.00;;;;;;4987204;28;20042;-86
2023/12/31 06:53:42;;;;;;;0.50;0.22;;;16.90;74.20;;;;;;5004874;28;20129;-86
2023/12/31 06:56:08;;;;;;;0.80;0.32;;;16.90;73.80;;;;;;5006578;28;20057;-86
2023/12/31 06:58:35;;;;;;;0.30;0.25;;;16.90;73.70;;;;;;5000139;28;20041;-84
2023/12/31 07:01:00;;;;;;;0.40;0.20;;;16.90;74.60;;;;;;4999662;28;20022;-85
2023/12/31 07:03:26;;;;;;;1.50;0.43;;;16.90;73.70;;;;;;5002423;28;20393;-87
2023/12/31 07:05:52;;;;;;;0.65;0.35;;;16.90;73.90;;;;;;5009420;28;20041;-86
2023/12/31 07:08:17;;;;;;;0.40;0.40;;;16.90;73.80;;;;;;4981853;28;20050;-87
2023/12/31 07:10:43;;;;;;;0.77;0.38;;;16.90;73.70;;;;;;5012845;28;20519;-86
2023/12/31 07:13:08;;;;;;;0.82;0.47;;;16.90;73.80;;;;;;4982791;28;20507;-86
2023/12/31 07:15:34;;;;;;;0.77;0.50;;;16.90;73.70;;;;;;4970107;28;20065;-85
2023/12/31 07:18:00;;;;;;;0.50;0.30;;;16.90;73.70;;;;;;4997822;28;20045;-85
2023/12/31 07:20:25;;;;;;;0.73;0.30;;;16.90;73.90;;;;;;5015879;28;20049;-85
2023/12/31 07:22:53;;;;;;;0.50;0.30;;;16.90;73.70;;;;;;4995827;28;20042;-84
2023/12/31 07:25:20;;;;;;;0.70;0.40;;;16.90;73.70;;;;;;4981252;28;20061;-85
2023/12/31 07:27:45;;;;;;;0.40;0.30;;;16.80;73.60;;;;;;4978360;28;20073;-85
2023/12/31 07:30:11;;;;;;;0.73;0.40;;;16.90;73.80;;;;;;5012606;28;20046;-85
2023/12/31 07:32:36;;;;;;;0.80;0.30;;;16.90;73.80;;;;;;4997747;28;20049;-84
2023/12/31 07:35:02;;;;;;;0.70;0.30;;;16.90;73.60;;;;;;5024008;28;20042;-85
2023/12/31 07:37:28;;;;;;;0.57;0.30;;;16.90;73.70;;;;;;5015363;28;20535;-85
2023/12/31 07:39:53;;;;;;;0.70;0.25;;;16.90;73.60;;;;;;5001657;28;20550;-85
2023/12/31 07:42:19;;;;;;;0.85;0.40;;;16.90;73.80;;;;;;4983013;28;20046;-85
2023/12/31 07:44:44;;;;;;;0.47;0.20;;;16.90;73.60;;;;;;5010326;28;20034;-85
2023/12/31 07:47:10;;;;;;;0.70;0.40;;;16.90;73.60;;;;;;5005630;28;20408;-86
2023/12/31 07:49:36;;;;;;;0.80;0.50;;;16.90;73.80;;;;;;4982409;28;20034;-85
2023/12/31 07:52:02;;;;;;;0.70;0.55;;;16.90;74.10;;;;;;5000013;28;20068;-87
2023/12/31 07:54:27;;;;;;;0.30;0.20;;;16.90;73.60;;;;;;5010954;28;20034;-87
2023/12/31 07:56:53;;;;;;;0.47;0.32;;;16.90;73.70;;;;;;5021185;28;20052;-88
2023/12/31 07:59:18;;;;;;;0.60;0.30;;;16.90;73.70;;;;;;5003345;28;20050;-87
2023/12/31 08:01:44;;;;;;;0.65;0.40;;;16.90;73.40;;;;;;4986885;28;20080;-87
2023/12/31 08:04:10;;;;;;;1.20;0.40;;;16.80;73.80;;;;;;4998073;28;20053;-87
2023/12/31 08:06:36;;;;;;;0.90;0.47;;;16.80;73.60;;;;;;4994975;28;20049;-84
2023/12/31 08:09:02;;;;;;;1.00;0.57;;;16.80;73.50;;;;;;5016978;28;20072;-87
2023/12/31 08:11:28;;;;;;;0.50;0.30;;;16.80;73.60;;;;;;4979559;28;20050;-87
2023/12/31 08:13:54;;;;;;;0.40;0.40;;;16.80;73.60;;;;;;4982304;28;20042;-87
2023/12/31 08:16:19;;;;;;;0.75;0.60;;;16.80;73.70;;;;;;5000672;28;20102;-88
2023/12/31 08:18:45;;;;;;;0.52;0.40;;;16.80;73.40;;;;;;4970402;28;20074;-87
2023/12/31 08:21:11;;;;;;;0.88;0.32;;;16.80;74.40;;;;;;5011591;28;20046;-88
2023/12/31 08:23:36;;;;;;;0.85;0.55;;;16.80;73.40;;;;;;4955984;28;20026;-88
2023/12/31 08:26:03;;;;;;;0.60;0.40;;;16.80;73.40;;;;;;4998383;28;20042;-88
2023/12/31 08:28:29;;;;;;;0.68;0.30;;;16.80;73.30;;;;;;5020098;28;20420;-86
2023/12/31 08:30:55;;;;;;;0.50;0.40;;;16.80;73.20;;;;;;5018664;28;20091;-85
2023/12/31 08:33:20;;;;;;;0.82;0.30;;;16.80;73.20;;;;;;5006692;28;20043;-85
2023/12/31 08:35:46;;;;;;;1.33;0.60;;;16.80;73.20;;;;;;4995097;28;20046;-85
2023/12/31 08:38:12;;;;;;;0.80;0.60;;;16.80;73.30;;;;;;5015752;28;20067;-87
2023/12/31 08:40:37;;;;;;;0.68;0.60;;;16.80;73.40;;;;;;5023955;28;20053;-86
2023/12/31 08:43:03;;;;;;;0.68;0.57;;;16.80;73.60;;;;;;4994919;28;20060;-86
2023/12/31 08:45:29;;;;;;;1.20;0.47;;;16.80;73.20;;;;;;4976852;28;20042;-86
2023/12/31 08:47:54;;;;;;;1.02;0.63;;;16.80;73.20;;;;;;5006741;28;20401;-86
2023/12/31 08:50:20;;;;;;;0.80;0.43;;;16.80;73.10;;;;;;4995830;28;20038;-86
2023/12/31 08:52:46;;;;;;;0.70;0.68;;;16.80;73.10;;;;;;4995082;28;20328;-85
2023/12/31 08:55:12;;;;;;;1.00;0.43;;;16.80;73.10;;;;;;5001185;28;20053;-87
2023/12/31 08:57:42;;;;;;;0.82;0.40;;;16.80;73.00;;;;;;5014983;28;20496;-86
2023/12/31 09:00:09;;;;;;;0.65;0.40;;;16.80;73.20;;;;;;4993922;28;20082;-87
2023/12/31 09:02:35;;;;;;;0.32;0.30;;;16.80;73.20;;;;;;4995842;28;20061;-86
2023/12/31 09:05:01;;;;;;;0.70;0.55;;;16.80;73.00;;;;;;5006451;28;20178;-86
2023/12/31 09:07:26;;;;;;;0.75;0.38;;;16.80;73.20;;;;;;5004053;28;20437;-85
2023/12/31 09:09:52;;;;;;;0.88;0.40;;;16.80;73.60;;;;;;4996981;28;20048;-86
2023/12/31 09:12:17;;;;;;;0.57;0.40;;;16.80;73.10;;;;;;4989802;28;20054;-86
2023/12/31 09:14:43;;;;;;;1.13;0.40;;;16.80;73.20;;;;;;5013148;28;20046;-87
2023/12/31 09:17:09;;;;;;;0.90;0.57;;;16.80;72.90;;;;;;5004747;28;20628;-86
2023/12/31 09:19:35;;;;;;;0.45;0.40;;;16.80;72.90;;;;;;5002470;28;20061;-86
2023/12/31 09:22:02;;;;;;;1.05;0.57;;;16.80;72.80;;;;;;4990361;28;20059;-87
2023/12/31 09:24:28;;;;;;;0.50;0.25;;;16.80;72.90;;;;;;4995826;28;20080;-86
2023/12/31 09:26:53;;;;;;;0.52;0.52;;;16.80;72.70;;;;;;5010708;28;20479;-87
2023/12/31 09:29:19;;;;;;;0.85;0.50;;;16.80;72.80;;;;;;5004382;28;20050;-87
2023/12/31 09:31:45;;;;;;;1.67;0.50;;;16.80;72.80;;;;;;4299284;28;10000746;-89
2023/12/31 09:34:11;;;;;;;1.05;0.50;;;16.80;72.80;;;;;;4971388;28;20092;-84
2023/12/31 09:36:36;;;;;;;1.92;0.90;;;16.80;72.80;;;;;;4991001;28;20046;-86
2023/12/31 09:39:02;;;;;;;4.05;1.02;;;16.90;73.00;;;;;;4985581;28;20105;-85
2023/12/31 09:41:28;;;;;;;2.38;1.10;;;16.90;72.90;;;;;;4996417;28;20057;-85
2023/12/31 09:43:56;;;;;;;1.60;0.82;;;17.00;72.70;;;;;;4977203;28;20046;-85
2023/12/31 09:46:24;;;;;;;1.77;0.80;;;17.00;73.50;;;;;;4986441;28;20056;-85
2023/12/31 09:48:50;;;;;;;5.28;0.70;;;17.10;74.10;;;;;;4968262;28;20049;-85
2023/12/31 09:51:19;;;;;;;1.38;0.70;;;17.20;73.50;;;;;;4989931;28;20104;-85
2023/12/31 09:53:45;;;;;;;1.00;0.40;;;17.20;74.20;;;;;;4968491;28;20045;-84
2023/12/31 09:56:16;;;;;;;2.28;0.57;;;17.30;73.70;;;;;;4985279;28;20054;-85
2023/12/31 09:58:41;;;;;;;0.60;0.52;;;17.40;73.80;;;;;;4985392;28;20069;-85
2023/12/31 10:01:07;;;;;;;0.45;0.32;;;17.40;73.90;;;;;;4995797;28;20108;-86
2023/12/31 10:03:32;;;;;;;1.13;0.50;;;17.40;73.90;;;;;;4996842;28;20124;-86
2023/12/31 10:05:58;;;;;;;0.47;0.30;;;17.50;73.60;;;;;;4951215;28;20034;-86
2023/12/31 10:08:24;;;;;;;0.70;0.35;;;17.50;73.70;;;;;;4973402;28;20595;-86
2023/12/31 10:10:52;;;;;;;0.80;0.50;;;17.50;73.60;;;;;;4977218;28;20446;-84
2023/12/31 10:13:18;;;;;;;0.50;0.40;;;17.60;73.50;;;;;;4990760;28;20684;-84
2023/12/31 10:15:43;;;;;;;2.30;0.68;;;17.60;73.40;;;;;;5004371;28;20137;-85
2023/12/31 10:18:09;;;;;;;0.70;0.60;;;17.60;73.40;;;;;;4987429;28;20589;-83
2023/12/31 10:20:38;;;;;;;0.90;0.57;;;17.70;73.30;;;;;;4994232;28;20060;-84
2023/12/31 10:23:04;;;;;;;2.03;0.63;;;17.70;73.30;;;;;;5008766;28;20219;-83
2023/12/31 10:25:30;;;;;;;0.40;0.40;;;17.70;73.30;;;;;;4972941;28;20171;-85
2023/12/31 10:27:55;;;;;;;0.93;0.60;;;17.70;73.50;;;;;;5004358;28;20038;-84
2023/12/31 10:30:22;;;;;;;0.43;0.43;;;17.60;73.40;;;;;;5001485;28;20442;-84
2023/12/31 10:32:48;;;;;;;0.65;0.65;;;17.60;73.60;;;;;;4999428;28;20415;-85
2023/12/31 10:35:18;;;;;;;0.45;0.38;;;17.70;73.30;;;;;;4998053;28;20104;-85
2023/12/31 10:37:44;;;;;;;0.82;0.55;;;17.70;73.30;;;;;;4979895;28;20046;-84
2023/12/31 10:40:20;;;;;;;1.27;1.15;;;17.70;74.00;;;;;;4976541;28;20051;-84
2023/12/31 10:42:55;;;;;;;1.77;1.60;;;17.80;72.70;;;;;;4998680;28;20045;-84
2023/12/31 10:45:21;;;;;;;2.88;2.67;;;17.80;72.70;;;;;;4988643;28;20065;-85
2023/12/31 10:47:51;;;;;;;3.35;2.92;;;17.90;72.50;;;;;;4999086;28;20038;-85
2023/12/31 10:50:22;;;;;;;3.83;3.08;;;17.90;72.50;;;;;;4981469;28;20397;-85
2023/12/31 10:52:49;;;;;;;2.70;2.20;;;17.90;72.50;;;;;;4994642;28;20077;-84
2023/12/31 10:55:16;;;;;;;2.13;1.92;;;18.00;72.50;;;;;;5004643;28;20037;-85
2023/12/31 10:57:42;;;;;;;1.75;1.65;;;18.00;72.20;;;;;;4976944;28;20081;-85
2023/12/31 11:00:11;;;;;;;2.20;2.10;;;18.10;72.30;;;;;;4979458;28;20070;-84
2023/12/31 11:02:36;;;;;;;2.00;1.77;;;18.10;72.10;;;;;;4983435;28;20477;-85
2023/12/31 11:05:03;;;;;;;1.90;1.80;;;18.10;71.90;;;;;;4984755;28;20413;-84
2023/12/31 11:07:29;;;;;;;2.97;2.10;;;18.20;71.90;;;;;;4971825;28;20066;-85
2023/12/31 11:09:55;;;;;;;1.75;1.65;;;18.20;72.00;;;;;;4975766;28;20104;-85
2023/12/31 11:12:20;;;;;;;2.58;1.70;;;18.20;71.90;;;;;;4984582;28;20050;-87
2023/12/31 11:15:06;;;;;;;1.88;1.58;;;18.10;72.20;;;;;;4983829;28;20162;-87
2023/12/31 11:18:02;;;;;;;2.88;1.80;;;18.10;72.20;;;;;;4986419;28;20091;-85
2023/12/31 11:20:46;;;;;;;2.75;2.55;;;18.10;72.00;;;;;;4986032;28;20427;-83
2023/12/31 11:23:29;;;;;;;4.25;3.72;;;18.10;72.00;;;;;;5003283;28;20065;-82
2023/12/31 11:25:55;;;;;;;4.85;4.35;;;18.20;71.90;;;;;;5004201;28;20058;-82
2023/12/31 11:28:20;;;;;;;4.68;4.28;;;18.30;71.70;;;;;;4977566;28;20129;-82
2023/12/31 11:30:51;;;;;;;5.88;4.07;;;18.30;71.30;;;;;;4975294;28;20042;-82
2023/12/31 11:33:21;;;;;;;4.05;3.65;;;18.30;71.30;;;;;;4984852;28;20066;-82
2023/12/31 11:35:48;;;;;;;8.07;3.50;;;18.40;71.40;;;;;;4978415;28;20626;-82
2023/12/31 11:38:14;;;;;;;4.03;3.17;;;18.40;71.50;;;;;;4995413;28;20106;-81
2023/12/31 11:40:40;;;;;;;3.33;3.00;;;18.40;71.60;;;;;;4647323;28;9999784;-83
2023/12/31 11:43:13;;;;;;;4.40;3.08;;;18.50;71.50;;;;;;5017689;28;20038;-83
2023/12/31 11:45:46;;;;;;;3.28;2.83;;;18.50;71.30;;;;;;4990310;28;20420;-83
2023/12/31 11:48:22;;;;;;;3.35;2.58;;;18.50;71.20;;;;;;4985981;28;20038;-83
2023/12/31 11:51:00;;;;;;;3.03;2.38;;;18.50;71.10;;;;;;4990704;28;20456;-83
2023/12/31 11:53:27;;;;;;;2.45;2.28;;;18.50;70.90;;;;;;4990641;28;20040;-83
2023/12/31 11:55:56;;;;;;;2.65;2.40;;;18.50;71.10;;;;;;4991589;28;20539;-83
2023/12/31 11:58:26;;;;;;;2.45;2.25;;;18.60;71.00;;;;;;4979193;28;20085;-83
2023/12/31 12:00:53;;;;;;;2.13;2.00;;;18.50;71.00;;;;;;4992634;28;20050;-83
2023/12/31 12:03:19;;;;;;;2.83;1.88;;;18.50;71.20;;;;;;5002565;28;20033;-83
2023/12/31 12:05:50;;;;;;;2.88;1.80;;;18.50;71.30;;;;;;5002330;28;20042;-83
2023/12/31 12:08:16;;;;;;;2.40;2.05;;;18.50;71.20;;;;;;4970445;28;20329;-83
2023/12/31 12:10:42;;;;;;;2.20;2.00;;;18.50;71.30;;;;;;4998971;28;20386;-83
2023/12/31 12:13:08;;;;;;;1.98;1.77;;;18.40;71.40;;;;;;4975899;28;20193;-83
2023/12/31 12:15:35;;;;;;;2.08;1.90;;;18.40;71.30;;;;;;4978243;28;20042;-83
2023/12/31 12:18:00;;;;;;;2.10;2.00;;;18.40;71.40;;;;;;4983841;28;20042;-83
2023/12/31 12:20:26;;;;;;;1.77;1.63;;;18.40;71.50;;;;;;4970741;28;20042;-83
2023/12/31 12:22:51;;;;;;;2.40;1.80;;;18.30;71.40;;;;;;4986496;28;20062;-83
2023/12/31 12:25:17;;;;;;;3.00;1.70;;;18.30;71.50;;;;;;4986255;28;20077;-86
2023/12/31 12:27:43;;;;;;;1.50;1.40;;;18.40;71.40;;;;;;4980227;28;20121;-86
2023/12/31 12:30:09;;;;;;;2.25;1.63;;;18.30;71.40;;;;;;4979552;28;20571;-87
2023/12/31 12:32:35;;;;;;;1.60;1.50;;;18.30;71.60;;;;;;4983589;28;20454;-87
2023/12/31 12:35:06;;;;;;;1.52;1.30;;;18.30;71.60;;;;;;4995492;28;20050;-86
2023/12/31 12:37:32;;;;;;;1.85;1.75;;;18.30;71.70;;;;;;4990968;28;20096;-86
2023/12/31 12:39:58;;;;;;;2.17;1.60;;;18.30;72.50;;;;;;4988859;28;20415;-87